sensor_id;sensor_type;location;lat;lon;timestamp;pressure;altitude;pressure_sealevel;temperature;humidity
73516;BME280;61763;51.416;5.442;2022-07-04T00:00:06;101944.66;;;10.64;85.86
73516;BME280;61763;51.416;5.442;2022-07-04T00:02:32;101936.66;;;10.61;86.20
73516;BME280;61763;51.416;5.442;2022-07-04T00:04:58;101951.88;;;10.64;86.52
73516;BME280;61763;51.416;5.442;2022-07-04T00:07:24;101945.59;;;10.63;86.63
73516;BME280;61763;51.416;5.442;2022-07-04T00:09:49;101941.13;;;10.62;87.20
73516;BME280;61763;51.416;5.442;2022-07-04T00:12:15;101936.56;;;10.64;87.54
73516;BME280;61763;51.416;5.442;2022-07-04T00:14:40;101928.44;;;10.64;87.66
73516;BME280;61763;51.416;5.442;2022-07-04T00:17:05;101931.22;;;10.63;87.89
73516;BME280;61763;51.416;5.442;2022-07-04T00:19:31;101932.16;;;10.62;88.06
73516;BME280;61763;51.416;5.442;2022-07-04T00:21:57;101924.81;;;10.65;88.23
73516;BME280;61763;51.416;5.442;2022-07-04T00:24:22;101931.22;;;10.63;88.22
73516;BME280;61763;51.416;5.442;2022-07-04T00:26:48;101925.97;;;10.58;87.84
73516;BME280;61763;51.416;5.442;2022-07-04T00:29:13;101942.31;;;10.54;87.89
73516;BME280;61763;51.416;5.442;2022-07-04T00:31:39;101933.50;;;10.48;87.63
73516;BME280;61763;51.416;5.442;2022-07-04T00:34:06;101929.13;;;10.44;87.68
73516;BME280;61763;51.416;5.442;2022-07-04T00:36:31;101931.06;;;10.39;87.58
73516;BME280;61763;51.416;5.442;2022-07-04T00:38:57;101927.66;;;10.34;87.62
73516;BME280;61763;51.416;5.442;2022-07-04T00:41:22;101929.56;;;10.29;87.49
73516;BME280;61763;51.416;5.442;2022-07-04T00:44:05;101933.31;;;10.25;87.59
73516;BME280;61763;51.416;5.442;2022-07-04T00:46:31;101920.91;;;10.19;87.64
73516;BME280;61763;51.416;5.442;2022-07-04T00:48:57;101925.59;;;10.12;87.81
73516;BME280;61763;51.416;5.442;2022-07-04T00:51:23;101920.41;;;10.06;87.86
73516;BME280;61763;51.416;5.442;2022-07-04T00:53:53;101916.88;;;10.04;87.89
73516;BME280;61763;51.416;5.442;2022-07-04T00:56:20;101915.97;;;10.04;88.37
73516;BME280;61763;51.416;5.442;2022-07-04T00:58:46;101910.69;;;10.00;88.17
73516;BME280;61763;51.416;5.442;2022-07-04T01:01:12;101912.69;;;9.94;88.15
73516;BME280;61763;51.416;5.442;2022-07-04T01:03:38;101918.16;;;9.91;88.01
73516;BME280;61763;51.416;5.442;2022-07-04T01:06:04;101912.75;;;9.91;88.58
73516;BME280;61763;51.416;5.442;2022-07-04T01:08:41;101923.41;;;9.97;88.60
73516;BME280;61763;51.416;5.442;2022-07-04T01:11:07;101911.69;;;9.96;88.37
73516;BME280;61763;51.416;5.442;2022-07-04T01:13:33;101911.81;;;9.93;88.04
73516;BME280;61763;51.416;5.442;2022-07-04T01:15:59;101908.44;;;9.87;87.94
73516;BME280;61763;51.416;5.442;2022-07-04T01:18:24;101904.00;;;9.84;88.27
73516;BME280;61763;51.416;5.442;2022-07-04T01:20:50;101906.66;;;9.86;88.21
73516;BME280;61763;51.416;5.442;2022-07-04T01:23:15;101903.19;;;9.82;88.38
73516;BME280;61763;51.416;5.442;2022-07-04T01:25:41;101904.16;;;9.79;88.17
73516;BME280;61763;51.416;5.442;2022-07-04T01:28:07;101899.78;;;9.75;88.20
73516;BME280;61763;51.416;5.442;2022-07-04T01:30:34;101903.47;;;9.71;87.94
73516;BME280;61763;51.416;5.442;2022-07-04T01:33:00;101905.44;;;9.66;88.15
73516;BME280;61763;51.416;5.442;2022-07-04T01:35:26;101894.81;;;9.61;87.94
73516;BME280;61763;51.416;5.442;2022-07-04T01:37:51;101895.78;;;9.59;88.01
73516;BME280;61763;51.416;5.442;2022-07-04T01:40:17;101890.47;;;9.56;87.77
73516;BME280;61763;51.416;5.442;2022-07-04T01:42:42;101892.31;;;9.54;87.91
73516;BME280;61763;51.416;5.442;2022-07-04T01:45:09;101880.63;;;9.55;88.45
73516;BME280;61763;51.416;5.442;2022-07-04T01:47:35;101879.69;;;9.56;88.56
73516;BME280;61763;51.416;5.442;2022-07-04T01:50:03;101880.63;;;9.55;88.48
73516;BME280;61763;51.416;5.442;2022-07-04T01:52:29;101860.97;;;9.51;88.82
73516;BME280;61763;51.416;5.442;2022-07-04T01:54:54;101869.78;;;9.56;89.01
73516;BME280;61763;51.416;5.442;2022-07-04T01:57:19;101870.66;;;9.57;89.19
73516;BME280;61763;51.416;5.442;2022-07-04T01:59:45;101864.41;;;9.56;89.46
73516;BME280;61763;51.416;5.442;2022-07-04T02:02:28;101874.41;;;9.53;89.46
73516;BME280;61763;51.416;5.442;2022-07-04T02:04:54;101876.28;;;9.49;89.35
73516;BME280;61763;51.416;5.442;2022-07-04T02:07:20;101868.28;;;9.46;89.57
73516;BME280;61763;51.416;5.442;2022-07-04T02:09:45;101870.97;;;9.46;89.95
73516;BME280;61763;51.416;5.442;2022-07-04T02:12:11;101878.97;;;9.49;89.90
73516;BME280;61763;51.416;5.442;2022-07-04T02:14:55;101873.59;;;9.49;89.78
73516;BME280;61763;51.416;5.442;2022-07-04T02:17:21;101871.03;;;9.44;89.64
73516;BME280;61763;51.416;5.442;2022-07-04T02:19:47;101875.59;;;9.42;89.83
73516;BME280;61763;51.416;5.442;2022-07-04T02:22:13;101878.38;;;9.39;89.89
73516;BME280;61763;51.416;5.442;2022-07-04T02:24:38;101882.91;;;9.37;89.90
73516;BME280;61763;51.416;5.442;2022-07-04T02:27:04;101877.63;;;9.34;89.87
73516;BME280;61763;51.416;5.442;2022-07-04T02:29:29;101871.50;;;9.29;90.26
73516;BME280;61763;51.416;5.442;2022-07-04T02:31:54;101874.00;;;9.35;90.28
73516;BME280;61763;51.416;5.442;2022-07-04T02:34:20;101879.38;;;9.35;90.37
73516;BME280;61763;51.416;5.442;2022-07-04T02:36:46;101885.69;;;9.34;90.15
73516;BME280;61763;51.416;5.442;2022-07-04T02:39:11;101882.13;;;9.34;90.07
73516;BME280;61763;51.416;5.442;2022-07-04T02:41:37;101882.91;;;9.37;90.24
73516;BME280;61763;51.416;5.442;2022-07-04T02:44:02;101872.28;;;9.33;90.03
73516;BME280;61763;51.416;5.442;2022-07-04T02:46:28;101883.13;;;9.29;89.98
73516;BME280;61763;51.416;5.442;2022-07-04T02:48:54;101879.69;;;9.24;90.01
73516;BME280;61763;51.416;5.442;2022-07-04T02:51:19;101882.47;;;9.21;90.08
73516;BME280;61763;51.416;5.442;2022-07-04T02:53:44;101880.81;;;9.17;90.10
73516;BME280;61763;51.416;5.442;2022-07-04T02:56:10;101887.19;;;9.13;89.99
73516;BME280;61763;51.416;5.442;2022-07-04T02:58:35;101886.38;;;9.09;90.08
73516;BME280;61763;51.416;5.442;2022-07-04T03:01:00;101897.19;;;9.08;90.10
73516;BME280;61763;51.416;5.442;2022-07-04T03:03:26;101899.88;;;9.08;90.19
73516;BME280;61763;51.416;5.442;2022-07-04T03:05:52;101898.13;;;9.07;90.43
73516;BME280;61763;51.416;5.442;2022-07-04T03:08:18;101902.50;;;9.11;90.51
73516;BME280;61763;51.416;5.442;2022-07-04T03:10:43;101900.47;;;9.19;90.68
73516;BME280;61763;51.416;5.442;2022-07-04T03:13:09;101899.47;;;9.23;90.46
73516;BME280;61763;51.416;5.442;2022-07-04T03:15:34;101906.66;;;9.23;90.40
73516;BME280;61763;51.416;5.442;2022-07-04T03:18:00;101916.66;;;9.19;90.22
73516;BME280;61763;51.416;5.442;2022-07-04T03:20:25;101915.56;;;9.26;89.96
73516;BME280;61763;51.416;5.442;2022-07-04T03:22:50;101927.28;;;9.24;89.72
73516;BME280;61763;51.416;5.442;2022-07-04T03:25:17;101929.97;;;9.24;89.89
73516;BME280;61763;51.416;5.442;2022-07-04T03:27:42;101927.31;;;9.22;89.72
73516;BME280;61763;51.416;5.442;2022-07-04T03:30:08;101929.94;;;9.25;89.79
73516;BME280;61763;51.416;5.442;2022-07-04T03:32:33;101936.28;;;9.23;89.52
73516;BME280;61763;51.416;5.442;2022-07-04T03:34:58;101942.50;;;9.26;89.81
73516;BME280;61763;51.416;5.442;2022-07-04T03:37:24;101944.19;;;9.31;89.80
73516;BME280;61763;51.416;5.442;2022-07-04T03:39:49;101941.25;;;9.38;89.43
73516;BME280;61763;51.416;5.442;2022-07-04T03:42:15;101936.75;;;9.39;89.34
73516;BME280;61763;51.416;5.442;2022-07-04T03:44:40;101934.66;;;9.50;88.87
73516;BME280;61763;51.416;5.442;2022-07-04T03:47:05;101941.00;;;9.47;88.99
73516;BME280;61763;51.416;5.442;2022-07-04T03:49:31;101945.47;;;9.49;88.97
73516;BME280;61763;51.416;5.442;2022-07-04T03:51:56;101945.25;;;9.56;88.72
73516;BME280;61763;51.416;5.442;2022-07-04T03:54:21;101945.16;;;9.59;88.78
73516;BME280;61763;51.416;5.442;2022-07-04T03:56:47;101946.16;;;9.55;88.59
73516;BME280;61763;51.416;5.442;2022-07-04T03:59:12;101944.41;;;9.54;88.70
73516;BME280;61763;51.416;5.442;2022-07-04T04:01:38;101948.06;;;9.52;88.76
73516;BME280;61763;51.416;5.442;2022-07-04T04:04:03;101947.13;;;9.54;88.68
73516;BME280;61763;51.416;5.442;2022-07-04T04:06:52;101948.84;;;9.55;88.92
73516;BME280;61763;51.416;5.442;2022-07-04T04:09:17;101958.69;;;9.58;88.85
73516;BME280;61763;51.416;5.442;2022-07-04T04:11:44;101955.84;;;9.62;88.56
73516;BME280;61763;51.416;5.442;2022-07-04T04:14:10;101945.88;;;9.66;88.56
73516;BME280;61763;51.416;5.442;2022-07-04T04:16:36;101960.00;;;9.74;88.33
73516;BME280;61763;51.416;5.442;2022-07-04T04:19:02;101967.84;;;9.84;88.20
73516;BME280;61763;51.416;5.442;2022-07-04T04:21:27;101974.00;;;9.87;88.34
73516;BME280;61763;51.416;5.442;2022-07-04T04:23:53;101972.03;;;9.94;88.08
73516;BME280;61763;51.416;5.442;2022-07-04T04:26:18;101971.69;;;10.05;87.65
73516;BME280;61763;51.416;5.442;2022-07-04T04:28:43;101975.94;;;10.13;87.41
73516;BME280;61763;51.416;5.442;2022-07-04T04:31:09;101973.03;;;10.20;87.47
73516;BME280;61763;51.416;5.442;2022-07-04T04:33:35;101973.59;;;10.31;87.03
73516;BME280;61763;51.416;5.442;2022-07-04T04:36:01;101979.56;;;10.42;86.55
73516;BME280;61763;51.416;5.442;2022-07-04T04:38:26;101979.44;;;10.47;86.44
73516;BME280;61763;51.416;5.442;2022-07-04T04:40:52;101981.63;;;10.62;85.73
73516;BME280;61763;51.416;5.442;2022-07-04T04:43:17;101984.97;;;10.71;85.74
73516;BME280;61763;51.416;5.442;2022-07-04T04:45:43;101984.88;;;10.74;86.01
73516;BME280;61763;51.416;5.442;2022-07-04T04:48:08;101984.75;;;10.77;85.67
73516;BME280;61763;51.416;5.442;2022-07-04T04:50:34;101978.06;;;10.89;85.28
73516;BME280;61763;51.416;5.442;2022-07-04T04:53:00;101974.03;;;11.02;84.72
73516;BME280;61763;51.416;5.442;2022-07-04T04:55:26;101970.22;;;11.08;84.62
73516;BME280;61763;51.416;5.442;2022-07-04T04:57:51;101963.56;;;11.18;84.25
73516;BME280;61763;51.416;5.442;2022-07-04T05:00:17;101975.72;;;11.31;83.96
73516;BME280;61763;51.416;5.442;2022-07-04T05:02:42;101957.50;;;11.36;83.57
73516;BME280;61763;51.416;5.442;2022-07-04T05:05:08;101958.84;;;11.50;83.12
73516;BME280;61763;51.416;5.442;2022-07-04T05:07:34;101962.13;;;11.58;83.10
73516;BME280;61763;51.416;5.442;2022-07-04T05:10:00;101958.19;;;11.67;82.92
73516;BME280;61763;51.416;5.442;2022-07-04T05:12:26;101951.38;;;11.80;82.63
73516;BME280;61763;51.416;5.442;2022-07-04T05:14:53;101963.16;;;12.04;81.87
73516;BME280;61763;51.416;5.442;2022-07-04T05:17:19;101958.31;;;12.13;81.12
73516;BME280;61763;51.416;5.442;2022-07-04T05:19:44;101956.06;;;12.24;80.69
73516;BME280;61763;51.416;5.442;2022-07-04T05:22:09;101962.00;;;12.56;79.28
73516;BME280;61763;51.416;5.442;2022-07-04T05:24:36;101959.91;;;12.62;78.82
73516;BME280;61763;51.416;5.442;2022-07-04T05:27:05;101962.25;;;12.72;78.91
73516;BME280;61763;51.416;5.442;2022-07-04T05:29:30;101963.13;;;12.72;78.89
73516;BME280;61763;51.416;5.442;2022-07-04T05:31:55;101958.56;;;12.95;78.63
73516;BME280;61763;51.416;5.442;2022-07-04T05:34:21;101950.09;;;13.03;78.32
73516;BME280;61763;51.416;5.442;2022-07-04T05:36:46;101953.03;;;13.19;77.97
73516;BME280;61763;51.416;5.442;2022-07-04T05:39:11;101955.13;;;13.34;77.91
73516;BME280;61763;51.416;5.442;2022-07-04T05:41:37;101948.06;;;13.51;77.55
73516;BME280;61763;51.416;5.442;2022-07-04T05:44:02;101947.03;;;14.12;74.71
73516;BME280;61763;51.416;5.442;2022-07-04T05:46:28;101957.16;;;14.46;73.72
73516;BME280;61763;51.416;5.442;2022-07-04T05:48:53;101947.09;;;14.85;72.55
73516;BME280;61763;51.416;5.442;2022-07-04T05:51:19;101954.72;;;14.78;72.91
73516;BME280;61763;51.416;5.442;2022-07-04T05:53:45;101950.13;;;14.79;72.84
73516;BME280;61763;51.416;5.442;2022-07-04T05:56:10;101953.03;;;14.76;72.92
73516;BME280;61763;51.416;5.442;2022-07-04T05:58:35;101952.66;;;14.64;73.35
73516;BME280;61763;51.416;5.442;2022-07-04T06:01:01;101958.22;;;14.80;73.24
73516;BME280;61763;51.416;5.442;2022-07-04T06:03:26;101959.50;;;14.91;73.30
73516;BME280;61763;51.416;5.442;2022-07-04T06:05:51;101957.38;;;14.97;72.74
73516;BME280;61763;51.416;5.442;2022-07-04T06:08:18;101959.28;;;15.13;72.33
73516;BME280;61763;51.416;5.442;2022-07-04T06:10:45;101962.88;;;15.31;72.20
73516;BME280;61763;51.416;5.442;2022-07-04T06:13:11;101961.44;;;15.41;71.55
73516;BME280;61763;51.416;5.442;2022-07-04T06:15:36;101954.44;;;15.53;71.30
73516;BME280;61763;51.416;5.442;2022-07-04T06:18:01;101956.44;;;15.67;70.85
73516;BME280;61763;51.416;5.442;2022-07-04T06:20:28;101952.47;;;15.56;70.91
73516;BME280;61763;51.416;5.442;2022-07-04T06:22:53;101951.00;;;15.67;70.86
73516;BME280;61763;51.416;5.442;2022-07-04T06:25:19;101966.03;;;15.74;70.83
73516;BME280;61763;51.416;5.442;2022-07-04T06:27:47;101966.63;;;15.97;70.33
73516;BME280;61763;51.416;5.442;2022-07-04T06:30:13;101971.69;;;16.20;70.18
73516;BME280;61763;51.416;5.442;2022-07-04T06:35:08;101967.09;;;16.85;67.94
73516;BME280;61763;51.416;5.442;2022-07-04T06:37:52;101970.03;;;17.12;66.03
73516;BME280;61763;51.416;5.442;2022-07-04T06:40:18;101955.31;;;17.59;64.90
73516;BME280;61763;51.416;5.442;2022-07-04T06:42:43;101966.38;;;17.86;64.74
73516;BME280;61763;51.416;5.442;2022-07-04T06:45:09;101961.59;;;17.76;64.21
73516;BME280;61763;51.416;5.442;2022-07-04T06:47:35;101964.22;;;17.63;64.74
73516;BME280;61763;51.416;5.442;2022-07-04T06:50:00;101965.25;;;17.46;65.07
73516;BME280;61763;51.416;5.442;2022-07-04T06:52:25;101964.25;;;17.32;64.82
73516;BME280;61763;51.416;5.442;2022-07-04T06:54:51;101962.44;;;17.47;64.19
73516;BME280;61763;51.416;5.442;2022-07-04T06:57:16;101956.78;;;17.36;65.14
73516;BME280;61763;51.416;5.442;2022-07-04T06:59:42;101962.06;;;17.54;64.83
73516;BME280;61763;51.416;5.442;2022-07-04T07:02:07;101960.97;;;17.56;64.06
73516;BME280;61763;51.416;5.442;2022-07-04T07:04:32;101961.13;;;17.83;64.16
73516;BME280;61763;51.416;5.442;2022-07-04T07:06:58;101958.03;;;18.04;62.88
73516;BME280;61763;51.416;5.442;2022-07-04T07:09:23;101962.03;;;18.40;62.60
73516;BME280;61763;51.416;5.442;2022-07-04T07:11:49;101956.75;;;18.51;59.65
73516;BME280;61763;51.416;5.442;2022-07-04T07:14:14;101947.75;;;18.91;59.72
73516;BME280;61763;51.416;5.442;2022-07-04T07:16:39;101941.97;;;18.96;58.18
73516;BME280;61763;51.416;5.442;2022-07-04T07:19:05;101941.09;;;18.68;58.26
73516;BME280;61763;51.416;5.442;2022-07-04T07:21:30;101938.00;;;18.60;58.96
73516;BME280;61763;51.416;5.442;2022-07-04T07:23:56;101933.50;;;18.59;58.18
73516;BME280;61763;51.416;5.442;2022-07-04T07:26:21;101940.91;;;18.15;58.61
73516;BME280;61763;51.416;5.442;2022-07-04T07:28:46;101948.56;;;18.51;57.36
73516;BME280;61763;51.416;5.442;2022-07-04T07:31:12;101940.28;;;18.38;58.14
73516;BME280;61763;51.416;5.442;2022-07-04T07:33:37;101945.41;;;18.58;58.70
73516;BME280;61763;51.416;5.442;2022-07-04T07:36:03;101937.75;;;18.77;56.60
73516;BME280;61763;51.416;5.442;2022-07-04T07:38:29;101944.84;;;18.80;57.59
73516;BME280;61763;51.416;5.442;2022-07-04T07:40:54;101937.16;;;18.72;57.24
73516;BME280;61763;51.416;5.442;2022-07-04T07:43:20;101940.78;;;19.00;57.47
73516;BME280;61763;51.416;5.442;2022-07-04T07:45:45;101939.16;;;19.10;56.05
73516;BME280;61763;51.416;5.442;2022-07-04T07:48:10;101937.63;;;19.06;55.20
73516;BME280;61763;51.416;5.442;2022-07-04T07:50:36;101941.50;;;19.29;55.15
73516;BME280;61763;51.416;5.442;2022-07-04T07:53:01;101943.25;;;19.17;54.88
73516;BME280;61763;51.416;5.442;2022-07-04T07:55:27;101952.53;;;19.15;54.23
73516;BME280;61763;51.416;5.442;2022-07-04T07:57:52;101945.47;;;19.51;53.94
73516;BME280;61763;51.416;5.442;2022-07-04T08:00:18;101937.59;;;19.72;52.99
73516;BME280;61763;51.416;5.442;2022-07-04T08:02:43;101935.63;;;19.61;52.76
73516;BME280;61763;51.416;5.442;2022-07-04T08:05:27;101946.00;;;19.43;53.28
73516;BME280;61763;51.416;5.442;2022-07-04T08:07:53;101929.34;;;19.59;54.55
73516;BME280;61763;51.416;5.442;2022-07-04T08:10:18;101929.03;;;19.64;52.04
73516;BME280;61763;51.416;5.442;2022-07-04T08:12:44;101933.00;;;19.98;52.67
73516;BME280;61763;51.416;5.442;2022-07-04T08:15:09;101925.72;;;20.10;52.07
73516;BME280;61763;51.416;5.442;2022-07-04T08:17:35;101925.41;;;20.39;51.49
73516;BME280;61763;51.416;5.442;2022-07-04T08:20:04;101915.00;;;20.44;51.32
73516;BME280;61763;51.416;5.442;2022-07-04T08:22:29;101925.44;;;20.63;50.84
73516;BME280;61763;51.416;5.442;2022-07-04T08:24:55;101943.91;;;20.85;49.54
73516;BME280;61763;51.416;5.442;2022-07-04T08:27:20;101941.91;;;21.11;50.13
73516;BME280;61763;51.416;5.442;2022-07-04T08:29:47;101936.47;;;20.98;48.21
73516;BME280;61763;51.416;5.442;2022-07-04T08:32:13;101943.75;;;21.11;48.33
73516;BME280;61763;51.416;5.442;2022-07-04T08:34:38;101943.66;;;20.88;48.84
73516;BME280;61763;51.416;5.442;2022-07-04T08:37:04;101935.25;;;21.03;47.44
73516;BME280;61763;51.416;5.442;2022-07-04T08:39:31;101941.66;;;21.26;48.07
73516;BME280;61763;51.416;5.442;2022-07-04T08:42:02;101957.94;;;21.05;48.40
73516;BME280;61763;51.416;5.442;2022-07-04T08:44:28;101945.16;;;21.16;49.10
73516;BME280;61763;51.416;5.442;2022-07-04T08:46:54;101943.72;;;21.46;48.67
73516;BME280;61763;51.416;5.442;2022-07-04T08:49:25;101944.28;;;21.74;47.83
73516;BME280;61763;51.416;5.442;2022-07-04T08:52:00;101951.28;;;21.67;48.40
73516;BME280;61763;51.416;5.442;2022-07-04T08:54:26;101948.31;;;21.93;46.19
73516;BME280;61763;51.416;5.442;2022-07-04T08:57:11;101937.69;;;22.22;47.63
73516;BME280;61763;51.416;5.442;2022-07-04T08:59:57;101942.69;;;22.05;47.37
73516;BME280;61763;51.416;5.442;2022-07-04T09:02:24;101947.28;;;22.16;45.92
73516;BME280;61763;51.416;5.442;2022-07-04T09:04:52;101946.78;;;22.45;47.73
73516;BME280;61763;51.416;5.442;2022-07-04T09:07:17;101937.38;;;22.91;45.95
73516;BME280;61763;51.416;5.442;2022-07-04T09:09:44;101943.44;;;23.18;44.98
73516;BME280;61763;51.416;5.442;2022-07-04T09:12:10;101946.38;;;23.47;44.99
73516;BME280;61763;51.416;5.442;2022-07-04T09:14:36;101938.69;;;23.93;42.23
73516;BME280;61763;51.416;5.442;2022-07-04T09:17:02;101942.63;;;24.00;42.72
73516;BME280;61763;51.416;5.442;2022-07-04T09:19:28;101933.47;;;24.00;42.02
73516;BME280;61763;51.416;5.442;2022-07-04T09:21:54;101940.53;;;23.61;41.35
73516;BME280;61763;51.416;5.442;2022-07-04T09:24:45;101949.59;;;23.73;43.28
73516;BME280;61763;51.416;5.442;2022-07-04T09:27:11;101942.44;;;23.92;42.25
73516;BME280;61763;51.416;5.442;2022-07-04T09:29:52;101940.16;;;23.97;40.94
73516;BME280;61763;51.416;5.442;2022-07-04T09:32:42;101929.00;;;23.77;42.99
73516;BME280;61763;51.416;5.442;2022-07-04T09:35:12;101936.38;;;24.39;41.10
73516;BME280;61763;51.416;5.442;2022-07-04T09:37:40;101933.44;;;24.21;41.92
73516;BME280;61763;51.416;5.442;2022-07-04T09:40:09;101939.50;;;24.65;40.04
73516;BME280;61763;51.416;5.442;2022-07-04T09:42:36;101935.28;;;24.20;41.87
73516;BME280;61763;51.416;5.442;2022-07-04T09:45:10;101939.75;;;24.02;41.41
73516;BME280;61763;51.416;5.442;2022-07-04T09:47:37;101934.50;;;24.49;39.16
73516;BME280;61763;51.416;5.442;2022-07-04T09:50:14;101940.19;;;24.57;38.38
73516;BME280;61763;51.416;5.442;2022-07-04T09:52:59;101935.88;;;24.94;37.69
73516;BME280;61763;51.416;5.442;2022-07-04T09:55:28;101936.88;;;25.02;38.75
73516;BME280;61763;51.416;5.442;2022-07-04T09:57:57;101929.63;;;25.21;39.27
73516;BME280;61763;51.416;5.442;2022-07-04T10:00:29;101925.69;;;25.24;40.19
73516;BME280;61763;51.416;5.442;2022-07-04T10:02:56;101934.72;;;24.96;39.96
73516;BME280;61763;51.416;5.442;2022-07-04T10:05:28;101922.16;;;25.51;39.44
73516;BME280;61763;51.416;5.442;2022-07-04T10:07:56;101936.91;;;24.83;39.38
73516;BME280;61763;51.416;5.442;2022-07-04T10:12:51;101935.00;;;24.93;39.67
73516;BME280;61763;51.416;5.442;2022-07-04T10:15:17;101930.94;;;25.36;37.90
73516;BME280;61763;51.416;5.442;2022-07-04T10:17:43;101933.50;;;25.58;37.26
73516;BME280;61763;51.416;5.442;2022-07-04T10:20:09;101931.34;;;25.99;35.57
73516;BME280;61763;51.416;5.442;2022-07-04T10:22:36;101930.91;;;26.77;33.49
73516;BME280;61763;51.416;5.442;2022-07-04T10:25:02;101931.22;;;25.81;35.17
73516;BME280;61763;51.416;5.442;2022-07-04T10:27:28;101914.47;;;26.48;35.06
73516;BME280;61763;51.416;5.442;2022-07-04T10:29:53;101928.00;;;25.58;36.55
73516;BME280;61763;51.416;5.442;2022-07-04T10:32:20;101912.72;;;26.01;36.71
73516;BME280;61763;51.416;5.442;2022-07-04T10:34:45;101918.91;;;26.40;37.89
73516;BME280;61763;51.416;5.442;2022-07-04T10:37:10;101916.50;;;26.46;35.85
73516;BME280;61763;51.416;5.442;2022-07-04T10:39:36;101923.31;;;26.05;34.49
73516;BME280;61763;51.416;5.442;2022-07-04T10:42:03;101921.06;;;25.05;37.72
73516;BME280;61763;51.416;5.442;2022-07-04T10:44:31;101923.25;;;25.30;38.58
73516;BME280;61763;51.416;5.442;2022-07-04T10:47:03;101918.22;;;25.63;37.83
73516;BME280;61763;51.416;5.442;2022-07-04T10:49:29;101910.91;;;26.37;37.28
73516;BME280;61763;51.416;5.442;2022-07-04T10:52:11;101915.59;;;26.09;36.77
73516;BME280;61763;51.416;5.442;2022-07-04T10:54:39;101902.06;;;25.59;36.20
73516;BME280;61763;51.416;5.442;2022-07-04T10:57:14;101909.97;;;25.44;39.67
73516;BME280;61763;51.416;5.442;2022-07-04T11:00:06;101914.97;;;24.81;37.09
73516;BME280;61763;51.416;5.442;2022-07-04T11:02:34;101913.78;;;24.64;38.27
73516;BME280;61763;51.416;5.442;2022-07-04T11:05:00;101902.19;;;24.90;37.56
73516;BME280;61763;51.416;5.442;2022-07-04T11:17:59;101897.19;;;24.55;37.00
73516;BME280;61763;51.416;5.442;2022-07-04T11:20:28;101895.56;;;24.33;38.19
73516;BME280;61763;51.416;5.442;2022-07-04T11:23:15;101890.69;;;25.05;39.58
73516;BME280;61763;51.416;5.442;2022-07-04T11:25:44;101889.53;;;25.74;35.35
73516;BME280;61763;51.416;5.442;2022-07-04T11:28:22;101882.97;;;26.31;36.30
73516;BME280;61763;51.416;5.442;2022-07-04T11:30:55;101877.19;;;26.88;34.99
73516;BME280;61763;51.416;5.442;2022-07-04T11:33:26;101870.63;;;26.89;34.12
73516;BME280;61763;51.416;5.442;2022-07-04T11:44:09;101880.84;;;26.88;35.23
73516;BME280;61763;51.416;5.442;2022-07-04T11:47:23;101876.72;;;26.74;35.14
73516;BME280;61763;51.416;5.442;2022-07-04T11:49:54;101869.19;;;26.49;34.53
73516;BME280;61763;51.416;5.442;2022-07-04T11:52:42;101864.03;;;26.36;34.94
73516;BME280;61763;51.416;5.442;2022-07-04T11:55:09;101852.69;;;26.29;33.87
73516;BME280;61763;51.416;5.442;2022-07-04T11:57:37;101862.88;;;26.11;34.99
73516;BME280;61763;51.416;5.442;2022-07-04T12:00:09;101854.25;;;27.22;35.10
73516;BME280;61763;51.416;5.442;2022-07-04T12:02:36;101850.16;;;27.60;34.03
73516;BME280;61763;51.416;5.442;2022-07-04T12:05:04;101854.59;;;27.45;32.06
73516;BME280;61763;51.416;5.442;2022-07-04T12:07:32;101855.59;;;26.73;32.87
73516;BME280;61763;51.416;5.442;2022-07-04T12:10:07;101852.78;;;26.55;33.33
73516;BME280;61763;51.416;5.442;2022-07-04T12:12:33;101854.78;;;25.89;36.22
73516;BME280;61763;51.416;5.442;2022-07-04T12:15:08;101853.00;;;25.70;37.28
73516;BME280;61763;51.416;5.442;2022-07-04T12:17:37;101854.41;;;25.47;39.88
73516;BME280;61763;51.416;5.442;2022-07-04T12:20:11;101851.91;;;25.53;39.40
73516;BME280;61763;51.416;5.442;2022-07-04T12:22:40;101863.34;;;25.31;40.20
73516;BME280;61763;51.416;5.442;2022-07-04T12:25:07;101865.34;;;25.29;39.55
73516;BME280;61763;51.416;5.442;2022-07-04T12:27:34;101857.97;;;25.10;40.35
73516;BME280;61763;51.416;5.442;2022-07-04T12:30:00;101859.13;;;25.17;40.05
73516;BME280;61763;51.416;5.442;2022-07-04T12:32:45;101857.69;;;25.60;40.56
73516;BME280;61763;51.416;5.442;2022-07-04T12:35:31;101860.75;;;25.67;38.74
73516;BME280;61763;51.416;5.442;2022-07-04T12:38:05;101851.03;;;25.91;38.10
73516;BME280;61763;51.416;5.442;2022-07-04T12:40:32;101857.22;;;26.30;40.19
73516;BME280;61763;51.416;5.442;2022-07-04T12:42:58;101851.38;;;26.33;37.14
73516;BME280;61763;51.416;5.442;2022-07-04T12:45:24;101858.47;;;25.90;38.67
73516;BME280;61763;51.416;5.442;2022-07-04T12:47:50;101852.94;;;25.90;38.02
73516;BME280;61763;51.416;5.442;2022-07-04T12:50:25;101857.22;;;25.75;38.06
73516;BME280;61763;51.416;5.442;2022-07-04T12:52:51;101856.75;;;25.79;38.84
73516;BME280;61763;51.416;5.442;2022-07-04T12:55:17;101851.81;;;26.11;37.50
73516;BME280;61763;51.416;5.442;2022-07-04T12:57:42;101851.41;;;26.05;36.06
73516;BME280;61763;51.416;5.442;2022-07-04T13:00:08;101841.28;;;25.86;37.38
73516;BME280;61763;51.416;5.442;2022-07-04T13:02:34;101844.69;;;26.08;37.36
73516;BME280;61763;51.416;5.442;2022-07-04T13:04:59;101839.53;;;26.77;37.00
73516;BME280;61763;51.416;5.442;2022-07-04T13:07:24;101838.00;;;27.01;34.70
73516;BME280;61763;51.416;5.442;2022-07-04T13:09:50;101825.81;;;26.93;36.98
73516;BME280;61763;51.416;5.442;2022-07-04T13:12:15;101841.09;;;26.98;37.54
73516;BME280;61763;51.416;5.442;2022-07-04T13:14:54;101841.41;;;26.40;35.52
73516;BME280;61763;51.416;5.442;2022-07-04T13:17:20;101836.75;;;26.59;36.79